Time;durP1;ratioP1;P1;durP2;ratioP2;P2;SDS_P1;SDS_P2;PMS_P1;PMS_P2;Temp;Humidity;BMP_temperature;BMP_pressure;BME280_temperature;BME280_humidity;BME280_pressure;Samples;Min_cycle;Max_cycle;Signal;HPM_P1;HPM_P2
2021/10/27 00:02:11;;;;;;;23.80;16.52;;;;;;;8.22;100.00;102110.25;5034715;28;20029;-71
2021/10/27 00:04:57;;;;;;;27.27;15.80;;;;;;;8.29;100.00;102110.38;5034571;28;20034;-71
2021/10/27 00:07:43;;;;;;;21.83;15.43;;;;;;;8.09;100.00;102111.78;5034947;28;20451;-71
2021/10/27 00:10:29;;;;;;;25.30;16.13;;;;;;;7.92;100.00;102100.19;5018985;28;20091;-71
2021/10/27 00:13:15;;;;;;;22.58;15.93;;;;;;;8.41;100.00;102101.81;5034917;28;20025;-71
2021/10/27 00:16:02;;;;;;;21.08;15.63;;;;;;;8.36;100.00;102095.66;5033839;28;20125;-71
2021/10/27 00:18:48;;;;;;;21.70;15.43;;;;;;;8.03;100.00;102093.41;5034741;28;20048;-71
2021/10/27 00:21:34;;;;;;;22.70;15.68;;;;;;;8.06;100.00;102087.38;5034390;28;20029;-71
2021/10/27 00:24:19;;;;;;;21.73;14.90;;;;;;;8.28;100.00;102092.06;5034124;28;20048;-71
2021/10/27 00:27:07;;;;;;;25.73;15.57;;;;;;;8.28;100.00;102086.84;5018629;28;20040;-71
2021/10/27 00:29:53;;;;;;;21.92;14.98;;;;;;;8.25;100.00;102086.81;5034933;28;20525;-71
2021/10/27 00:32:38;;;;;;;20.35;14.82;;;;;;;8.34;100.00;102084.31;5034182;28;20025;-71
2021/10/27 00:35:24;;;;;;;25.65;15.23;;;;;;;8.27;100.00;102080.75;5018332;28;20029;-71
2021/10/27 00:38:10;;;;;;;22.83;15.10;;;;;;;8.25;100.00;102082.47;5033907;28;20030;-71
2021/10/27 00:40:56;;;;;;;21.38;14.55;;;;;;;8.12;100.00;102079.63;5034317;28;20079;-72
2021/10/27 00:43:42;;;;;;;21.17;14.38;;;;;;;8.43;100.00;102080.09;5034327;28;20272;-71
2021/10/27 00:46:28;;;;;;;19.25;13.18;;;;;;;8.68;100.00;102082.13;5034112;28;20039;-71
2021/10/27 00:49:13;;;;;;;21.50;14.38;;;;;;;8.49;100.00;102072.31;5018445;28;20047;-72
2021/10/27 00:52:01;;;;;;;19.98;14.02;;;;;;;8.49;100.00;102074.94;5018425;28;20028;-71
2021/10/27 00:54:50;;;;;;;19.60;13.68;;;;;;;8.62;100.00;102076.84;5033824;28;20132;-71
2021/10/27 00:57:37;;;;;;;18.13;12.73;;;;;;;8.73;100.00;102071.75;5034446;28;20092;-71
2021/10/27 01:00:23;;;;;;;17.38;13.25;;;;;;;8.52;100.00;102077.59;5033938;28;20033;-71
2021/10/27 01:03:08;;;;;;;18.45;13.18;;;;;;;8.47;100.00;102074.06;5034395;28;20071;-72
2021/10/27 01:05:54;;;;;;;18.70;13.38;;;;;;;8.55;100.00;102076.75;5005246;28;20022;-71
2021/10/27 01:08:40;;;;;;;19.98;13.70;;;;;;;8.78;100.00;102070.06;5018822;28;20106;-71
2021/10/27 01:11:27;;;;;;;21.73;14.30;;;;;;;8.97;100.00;102070.28;5018669;28;20025;-72
2021/10/27 01:14:14;;;;;;;20.90;13.88;;;;;;;8.83;100.00;102069.25;5036962;28;20132;-71
2021/10/27 01:17:00;;;;;;;20.90;13.50;;;;;;;8.87;100.00;102072.78;5037927;28;20047;-72
2021/10/27 01:19:56;;;;;;;19.17;13.60;;;;;;;8.76;100.00;102064.81;5037805;28;20458;-71
2021/10/27 01:22:42;;;;;;;20.38;13.30;;;;;;;8.82;100.00;102075.34;5037754;28;20102;-71
2021/10/27 01:25:28;;;;;;;23.48;13.85;;;;;;;8.94;100.00;102072.88;5037260;28;20091;-72
2021/10/27 01:28:14;;;;;;;19.10;13.93;;;;;;;9.21;100.00;102072.28;5037398;28;20102;-71
2021/10/27 01:30:59;;;;;;;22.27;13.75;;;;;;;8.67;100.00;102075.16;5037199;28;20053;-72
2021/10/27 01:33:46;;;;;;;19.08;14.30;;;;;;;9.09;100.00;102064.31;5037929;28;20090;-71
2021/10/27 01:36:31;;;;;;;20.02;13.15;;;;;;;9.00;100.00;102064.19;5037031;28;20461;-72
2021/10/27 01:39:17;;;;;;;21.80;13.82;;;;;;;8.96;100.00;102071.13;5036532;28;20100;-71
2021/10/27 01:42:03;;;;;;;21.60;14.70;;;;;;;8.68;100.00;102076.91;5022902;28;20021;-71
2021/10/27 01:44:49;;;;;;;23.27;14.40;;;;;;;8.73;100.00;102076.97;5021852;28;20033;-71
2021/10/27 01:47:39;;;;;;;22.42;15.35;;;;;;;8.65;100.00;102076.00;5037419;28;20029;-71
2021/10/27 01:50:26;;;;;;;26.13;15.45;;;;;;;8.68;100.00;102084.75;5037220;28;20065;-71
2021/10/27 01:53:12;;;;;;;31.10;16.35;;;;;;;8.94;100.00;102072.88;5037126;28;20029;-70
2021/10/27 01:55:58;;;;;;;23.02;15.45;;;;;;;8.74;100.00;102084.84;5036470;28;20037;-71
2021/10/27 01:58:44;;;;;;;24.25;14.85;;;;;;;8.93;100.00;102080.69;5037085;28;20022;-71
2021/10/27 02:01:30;;;;;;;20.40;14.88;;;;;;;8.87;100.00;102085.84;5037344;28;20033;-71
2021/10/27 02:04:18;;;;;;;21.88;14.73;;;;;;;8.31;100.00;102082.53;5036450;28;20108;-71
2021/10/27 02:07:04;;;;;;;22.63;15.60;;;;;;;8.58;100.00;102085.50;5036304;28;20033;-70
2021/10/27 02:09:49;;;;;;;19.60;14.27;;;;;;;8.46;100.00;102085.38;5022350;28;20098;-70
2021/10/27 02:12:37;;;;;;;22.45;14.65;;;;;;;8.47;100.00;102087.09;5021348;28;20399;-71
2021/10/27 02:15:23;;;;;;;21.20;14.45;;;;;;;7.99;100.00;102090.72;5020631;28;20120;-71
2021/10/27 02:18:09;;;;;;;19.67;14.18;;;;;;;8.06;100.00;102087.38;5035960;28;20048;-70
2021/10/27 02:20:54;;;;;;;24.25;14.50;;;;;;;8.44;100.00;102084.44;5022120;28;20040;-71
2021/10/27 02:23:40;;;;;;;20.45;14.48;;;;;;;8.11;100.00;102085.69;5036394;28;20033;-71
2021/10/27 02:26:26;;;;;;;22.95;14.18;;;;;;;8.14;100.00;102086.63;5036080;28;20021;-71
2021/10/27 02:29:12;;;;;;;19.92;13.73;;;;;;;7.85;100.00;102098.38;5035671;28;20585;-71
2021/10/27 02:31:57;;;;;;;22.35;14.30;;;;;;;7.69;100.00;102100.72;5036030;28;20072;-71
2021/10/27 02:34:43;;;;;;;20.38;14.00;;;;;;;7.92;100.00;102096.72;5035982;28;20116;-71
2021/10/27 02:37:29;;;;;;;18.95;13.32;;;;;;;7.58;100.00;102100.53;5036130;28;20454;-71
2021/10/27 02:40:16;;;;;;;20.10;14.50;;;;;;;7.44;100.00;102103.75;5035556;28;20029;-70
2021/10/27 02:43:01;;;;;;;24.05;15.27;;;;;;;7.81;100.00;102103.50;5020409;28;20030;-72
2021/10/27 02:45:48;;;;;;;27.10;15.60;;;;;;;7.39;100.00;102103.66;5020014;28;20451;-71
2021/10/27 02:48:34;;;;;;;23.25;14.70;;;;;;;7.45;100.00;102113.34;5035768;28;20116;-71
2021/10/27 02:51:20;;;;;;;23.42;15.07;;;;;;;7.14;100.00;102111.03;5036181;28;20390;-71
2021/10/27 02:54:05;;;;;;;21.90;14.73;;;;;;;7.42;100.00;102108.94;5035366;28;20072;-72
2021/10/27 02:56:51;;;;;;;18.70;13.73;;;;;;;7.55;100.00;102110.06;5035427;28;20022;-72
2021/10/27 02:59:37;;;;;;;22.27;15.05;;;;;;;7.63;100.00;102111.91;5035456;28;20025;-71
2021/10/27 03:02:23;;;;;;;19.77;14.65;;;;;;;8.17;100.00;102104.06;5021469;28;20021;-72
2021/10/27 03:05:08;;;;;;;28.77;14.80;;;;;;;8.03;100.00;102106.47;5020686;28;20136;-71
2021/10/27 03:07:54;;;;;;;22.73;14.55;;;;;;;7.88;100.00;102121.03;5035338;28;20018;-71
2021/10/27 03:10:40;;;;;;;26.05;16.23;;;;;;;7.69;100.00;102118.97;5020410;28;20044;-71
2021/10/27 03:13:27;;;;;;;27.27;16.67;;;;;;;8.05;100.00;102112.59;5035994;28;20039;-71
2021/10/27 03:16:12;;;;;;;32.20;17.20;;;;;;;7.99;100.00;102107.28;5035189;28;20465;-71
2021/10/27 03:18:58;;;;;;;28.92;18.55;;;;;;;8.11;100.00;102111.78;5035648;28;20036;-70
2021/10/27 03:21:44;;;;;;;27.90;18.58;;;;;;;8.04;100.00;102113.44;5035009;28;20022;-71
2021/10/27 03:24:30;;;;;;;31.58;17.83;;;;;;;7.78;100.00;102108.66;5035480;28;20474;-71
2021/10/27 03:27:16;;;;;;;38.80;20.25;;;;;;;7.93;100.00;102106.31;5020875;28;20091;-70
2021/10/27 03:30:03;;;;;;;34.22;20.63;;;;;;;7.95;100.00;102117.63;5034712;28;20029;-71
2021/10/27 03:32:51;;;;;;;28.95;18.65;;;;;;;8.14;100.00;102110.13;5035343;28;20044;-72
2021/10/27 03:35:36;;;;;;;31.92;19.25;;;;;;;8.30;100.00;102111.25;5034628;28;20045;-71
2021/10/27 03:38:22;;;;;;;36.90;19.25;;;;;;;8.06;100.00;102114.34;5034975;28;20037;-71
2021/10/27 03:41:09;;;;;;;31.50;19.27;;;;;;;7.93;100.00;102108.91;5019183;28;20025;-72
2021/10/27 03:43:55;;;;;;;30.08;19.27;;;;;;;8.19;100.00;102107.56;5020960;28;20029;-71
2021/10/27 03:46:41;;;;;;;29.33;18.83;;;;;;;8.06;100.00;102111.75;5019262;28;20059;-70
2021/10/27 03:49:27;;;;;;;40.53;19.73;;;;;;;7.97;100.00;102105.50;5034750;28;20033;-72
2021/10/27 03:52:14;;;;;;;31.88;17.90;;;;;;;7.92;100.00;102120.22;5034600;28;20405;-71
2021/10/27 03:55:00;;;;;;;28.92;19.45;;;;;;;7.93;100.00;102124.56;5018764;28;20471;-71
2021/10/27 03:57:46;;;;;;;33.03;17.75;;;;;;;7.76;100.00;102126.03;5034194;28;20363;-70
2021/10/27 04:00:31;;;;;;;24.70;17.08;;;;;;;7.98;100.00;102130.75;5035067;28;20558;-71
2021/10/27 04:03:21;;;;;;;26.38;16.85;;;;;;;7.99;100.00;102119.44;5019319;28;20034;-71
2021/10/27 04:06:07;;;;;;;23.98;14.63;;;;;;;7.95;100.00;102133.28;5034488;28;20455;-71
2021/10/27 04:08:53;;;;;;;27.50;15.32;;;;;;;8.17;100.00;102132.78;5018907;28;20175;-71
2021/10/27 04:11:39;;;;;;;23.50;14.95;;;;;;;8.28;100.00;102134.72;5019373;28;20447;-72
2021/10/27 04:14:25;;;;;;;23.67;15.27;;;;;;;8.27;100.00;102125.13;5034500;28;20451;-72
2021/10/27 04:17:11;;;;;;;27.77;17.77;;;;;;;7.86;100.00;102143.59;5034162;28;20026;-72
2021/10/27 04:19:57;;;;;;;26.15;15.77;;;;;;;7.56;100.00;102143.09;5019933;28;20028;-72
2021/10/27 04:22:42;;;;;;;22.02;14.88;;;;;;;7.32;100.00;102146.13;5034144;28;20025;-71
2021/10/27 04:25:29;;;;;;;18.35;12.18;;;;;;;7.36;100.00;102160.13;5034043;28;20017;-72
2021/10/27 04:28:15;;;;;;;18.30;13.43;;;;;;;7.04;100.00;102150.81;5033956;28;20414;-71
2021/10/27 04:31:02;;;;;;;17.05;12.75;;;;;;;6.80;100.00;102148.59;5034559;28;20132;-71
2021/10/27 04:33:48;;;;;;;22.13;12.80;;;;;;;6.97;100.00;102149.81;5034145;28;20030;-71
2021/10/27 04:36:34;;;;;;;18.45;12.82;;;;;;;6.60;100.00;102156.81;5034611;28;20029;-71
2021/10/27 04:39:20;;;;;;;16.55;12.50;;;;;;;6.75;100.00;102157.16;5019210;28;20402;-71
2021/10/27 04:42:06;;;;;;;17.80;13.27;;;;;;;6.51;100.00;102154.88;5035092;28;20086;-71
2021/10/27 04:44:52;;;;;;;19.70;14.07;;;;;;;5.95;100.00;102164.88;5034013;28;20042;-71
2021/10/27 04:47:38;;;;;;;22.00;14.88;;;;;;;6.37;100.00;102163.25;5035256;28;20025;-71
2021/10/27 04:50:24;;;;;;;28.83;14.68;;;;;;;5.73;100.00;102172.94;5037692;28;20084;-71
2021/10/27 04:53:18;;;;;;;26.73;14.60;;;;;;;6.23;100.00;102186.34;5037935;28;20053;-71
2021/10/27 04:56:04;;;;;;;20.77;14.57;;;;;;;6.63;100.00;102180.34;5037398;28;20433;-72
2021/10/27 04:58:50;;;;;;;23.45;15.70;;;;;;;6.47;100.00;102191.25;5022166;28;20104;-71
2021/10/27 05:01:36;;;;;;;21.70;15.02;;;;;;;6.62;100.00;102189.84;5037803;28;20029;-71
2021/10/27 05:04:22;;;;;;;24.45;16.13;;;;;;;6.60;100.00;102193.28;5038121;28;20050;-71
2021/10/27 05:07:10;;;;;;;19.58;14.13;;;;;;;6.63;100.00;102201.16;5037346;28;20112;-71
2021/10/27 05:09:56;;;;;;;28.67;17.63;;;;;;;6.89;100.00;102202.59;5037297;28;20040;-72
2021/10/27 05:12:42;;;;;;;22.45;15.30;;;;;;;6.84;100.00;102186.88;5036936;28;20044;-71
2021/10/27 05:15:28;;;;;;;31.25;18.67;;;;;;;6.55;100.00;102197.50;5037553;28;20050;-71
2021/10/27 05:18:15;;;;;;;45.40;19.60;;;;;;;5.53;100.00;102210.53;5036716;28;20525;-70
2021/10/27 05:21:01;;;;;;;45.38;22.65;;;;;;;6.13;100.00;102223.41;5035908;28;20135;-72
2021/10/27 05:23:47;;;;;;;31.98;19.52;;;;;;;6.44;100.00;102220.72;5037504;28;20029;-71
2021/10/27 05:26:33;;;;;;;26.80;17.05;;;;;;;6.83;100.00;102224.19;5036378;28;20126;-73
2021/10/27 05:29:20;;;;;;;30.95;19.70;;;;;;;6.78;100.00;102223.22;5037090;28;20071;-72
2021/10/27 05:32:06;;;;;;;22.80;15.07;;;;;;;6.72;100.00;102223.09;5037411;28;20052;-71
2021/10/27 05:34:52;;;;;;;21.40;14.43;;;;;;;6.62;100.00;102234.13;5036668;28;20445;-71
2021/10/27 05:37:38;;;;;;;87.70;18.75;;;;;;;6.27;100.00;102236.78;5037388;28;20021;-71
2021/10/27 05:40:24;;;;;;;18.88;13.43;;;;;;;6.52;100.00;102237.38;5022019;28;20032;-71
2021/10/27 05:43:13;;;;;;;21.20;15.43;;;;;;;6.61;100.00;102241.91;5037074;28;20367;-71
2021/10/27 05:45:59;;;;;;;22.83;15.63;;;;;;;6.52;100.00;102246.91;5036945;28;20033;-72
2021/10/27 05:48:47;;;;;;;20.25;14.57;;;;;;;6.79;100.00;102237.97;5036970;28;20477;-71
2021/10/27 05:51:41;;;;;;;28.17;16.23;;;;;;;6.52;100.00;102250.41;5037132;28;20036;-71
2021/10/27 05:57:40;;;;;;;20.92;15.02;;;;;;;6.79;100.00;102265.78;5037610;28;20362;-72
2021/10/27 06:00:26;;;;;;;19.05;14.23;;;;;;;6.92;100.00;102259.97;5021679;28;20044;-70
2021/10/27 06:03:12;;;;;;;27.10;16.83;;;;;;;6.85;100.00;102272.00;5036920;28;20033;-70
2021/10/27 06:05:57;;;;;;;27.30;16.35;;;;;;;6.63;100.00;102276.69;5036026;28;20065;-71
2021/10/27 06:08:43;;;;;;;36.58;16.63;;;;;;;6.83;100.00;102280.63;5036639;28;20581;-71
2021/10/27 06:11:30;;;;;;;21.13;14.30;;;;;;;6.70;100.00;102289.88;5036612;28;20071;-71
2021/10/27 06:14:16;;;;;;;27.08;16.45;;;;;;;6.94;100.00;102289.53;5036484;28;20029;-71
2021/10/27 06:17:02;;;;;;;22.50;14.90;;;;;;;6.72;100.00;102289.91;5022277;28;20045;-71
2021/10/27 06:19:51;;;;;;;23.88;15.48;;;;;;;6.71;100.00;102302.03;5036606;28;20108;-72
2021/10/27 06:22:37;;;;;;;21.38;15.38;;;;;;;6.91;100.00;102302.53;5020939;28;20390;-71
2021/10/27 06:25:24;;;;;;;28.08;16.88;;;;;;;6.73;100.00;102304.69;5035927;28;20029;-71
2021/10/27 06:28:15;;;;;;;23.45;16.38;;;;;;;7.22;100.00;102313.63;5036115;28;20118;-71
2021/10/27 06:31:12;;;;;;;27.48;17.95;;;;;;;6.98;100.00;102312.22;5020765;28;20040;-70
2021/10/27 06:34:06;;;;;;;26.58;17.20;;;;;;;6.96;100.00;102314.81;5035505;28;20053;-71
2021/10/27 06:48:50;;;;;;;31.23;19.08;;;;;;;7.39;100.00;102320.09;5036626;28;20443;-70
2021/10/27 06:51:37;;;;;;;30.10;17.85;;;;;;;7.83;100.00;102324.47;5035850;28;20120;-70
2021/10/27 06:54:22;;;;;;;29.88;18.20;;;;;;;7.66;100.00;102327.59;5034922;28;20367;-70
2021/10/27 06:57:08;;;;;;;29.92;19.23;;;;;;;7.61;100.00;102324.00;5035574;28;20026;-70
2021/10/27 07:00:13;;;;;;;36.90;20.77;;;;;;;7.74;100.00;102326.91;5020567;28;20025;-70
2021/10/27 07:17:49;;;;;;;27.90;18.42;;;;;;;7.48;100.00;102330.69;5036193;28;20100;-70
2021/10/27 07:20:35;;;;;;;27.33;18.45;;;;;;;8.09;100.00;102330.16;5034768;28;20187;-71
2021/10/27 07:23:21;;;;;;;29.60;19.88;;;;;;;7.45;100.00;102335.88;5035021;28;20095;-70
2021/10/27 07:26:08;;;;;;;31.52;20.00;;;;;;;7.96;100.00;102333.41;5034973;28;20087;-71
2021/10/27 07:28:56;;;;;;;34.88;21.00;;;;;;;8.00;100.00;102330.00;5035316;28;20025;-70
2021/10/27 07:31:43;;;;;;;29.67;19.83;;;;;;;8.13;100.00;102325.03;5034918;28;20064;-70
2021/10/27 07:34:32;;;;;;;31.17;21.02;;;;;;;7.83;100.00;102327.06;5034356;28;20025;-71
2021/10/27 07:43:14;;;;;;;31.77;20.88;;;;;;;8.08;100.00;102333.63;5035364;28;20029;-71
2021/10/27 07:46:01;;;;;;;33.35;21.35;;;;;;;8.58;100.00;102333.69;5034481;28;20109;-70
2021/10/27 07:48:47;;;;;;;33.28;20.27;;;;;;;8.21;100.00;102336.53;5035548;28;20029;-71
2021/10/27 07:51:33;;;;;;;31.42;21.73;;;;;;;8.74;100.00;102338.31;5005926;28;20055;-70
2021/10/27 07:54:19;;;;;;;33.58;20.90;;;;;;;8.83;100.00;102330.59;5034691;28;20049;-70
2021/10/27 07:57:04;;;;;;;33.80;23.63;;;;;;;8.80;100.00;102334.91;5019128;28;20040;-70
2021/10/27 07:59:51;;;;;;;34.80;20.50;;;;;;;8.60;100.00;102334.56;5034394;28;20033;-70
2021/10/27 08:02:48;;;;;;;46.35;24.30;;;;;;;7.66;100.00;102335.41;5034600;28;20032;-71
2021/10/27 08:05:43;;;;;;;34.95;20.25;;;;;;;8.61;100.00;102345.91;5020257;28;20515;-70
2021/10/27 08:08:29;;;;;;;28.77;19.83;;;;;;;8.58;100.00;102345.88;5034842;28;20034;-71
2021/10/27 08:11:15;;;;;;;33.80;21.27;;;;;;;8.56;100.00;102342.38;5034386;28;20025;-70
2021/10/27 08:14:01;;;;;;;33.80;21.92;;;;;;;8.15;100.00;102340.72;5019318;28;20053;-70
2021/10/27 08:16:47;;;;;;;31.63;21.02;;;;;;;8.39;100.00;102344.69;5034580;28;20478;-70
2021/10/27 08:19:33;;;;;;;27.70;19.88;;;;;;;8.29;100.00;102344.50;5034233;28;20029;-70
2021/10/27 08:22:20;;;;;;;33.50;22.48;;;;;;;8.41;100.00;102342.97;5036818;28;20049;-70
2021/10/27 08:25:08;;;;;;;29.02;19.85;;;;;;;8.03;100.00;102343.09;5038120;28;20470;-70
2021/10/27 08:27:56;;;;;;;35.30;20.73;;;;;;;8.30;100.00;102349.75;5022658;28;20037;-70
2021/10/27 08:30:53;;;;;;;37.47;21.45;;;;;;;8.34;100.00;102348.06;5023990;28;20025;-71
2021/10/27 08:33:49;;;;;;;27.85;18.85;;;;;;;8.39;100.00;102344.69;5038544;28;20033;-70
2021/10/27 08:36:35;;;;;;;32.95;21.27;;;;;;;9.03;100.00;102343.97;5037731;28;20105;-70
2021/10/27 08:39:21;;;;;;;30.70;20.45;;;;;;;9.24;100.00;102346.88;5038168;28;20036;-70
2021/10/27 08:42:08;;;;;;;35.63;22.80;;;;;;;7.71;100.00;102349.41;5022698;28;20025;-71
2021/10/27 08:44:54;;;;;;;35.88;22.17;;;;;;;7.26;100.00;102357.19;5037440;28;20033;-71
2021/10/27 08:47:41;;;;;;;36.80;24.70;;;;;;;8.08;100.00;102359.75;5037873;28;20455;-70
2021/10/27 08:50:27;;;;;;;29.77;20.67;;;;;;;8.55;100.00;102357.16;5037872;28;20130;-70
2021/10/27 08:53:15;;;;;;;31.50;21.50;;;;;;;8.85;100.00;102355.00;5038249;28;20121;-70
2021/10/27 08:56:04;;;;;;;31.33;20.83;;;;;;;8.55;100.00;102359.75;5037570;28;20049;-70
2021/10/27 08:58:56;;;;;;;30.23;20.25;;;;;;;9.26;100.00;102345.16;5037971;28;20561;-70
2021/10/27 09:36:08;;;;;;;36.97;24.70;;;;;;;8.47;100.00;102318.69;5037594;28;20025;-71
2021/10/27 10:04:23;;;;;;;31.35;22.15;;;;;;;10.29;100.00;102293.13;5037507;28;20115;-69
2021/10/27 10:07:10;;;;;;;32.67;22.92;;;;;;;10.40;100.00;102286.25;5025791;28;20451;-69
2021/10/27 10:09:57;;;;;;;35.90;24.27;;;;;;;10.38;100.00;102276.63;5035598;28;20033;-70
2021/10/27 10:12:48;;;;;;;35.17;22.83;;;;;;;9.97;100.00;102284.09;5036624;28;20116;-70
2021/10/27 10:15:38;;;;;;;34.72;24.00;;;;;;;9.64;100.00;102283.72;5036492;28;20163;-69
2021/10/27 10:18:24;;;;;;;34.55;23.13;;;;;;;9.78;100.00;102290.00;5020895;28;20117;-71
2021/10/27 10:21:12;;;;;;;36.58;24.13;;;;;;;9.64;100.00;102286.34;5037214;28;20041;-70
2021/10/27 10:24:21;;;;;;;33.35;22.98;;;;;;;10.30;100.00;102296.66;5037091;28;20057;-69
2021/10/27 10:27:13;;;;;;;33.05;23.20;;;;;;;10.67;100.00;102294.34;5035453;28;20033;-70
2021/10/27 10:30:02;;;;;;;30.90;21.75;;;;;;;10.16;100.00;102293.03;5036313;28;20458;-70
2021/10/27 10:33:02;;;;;;;33.97;22.35;;;;;;;10.23;100.00;102293.09;5036347;28;20400;-69
2021/10/27 11:37:39;;;;;;;30.08;21.65;;;;;;;11.99;100.00;102244.19;5035189;28;20022;-70
2021/10/27 11:40:30;;;;;;;27.73;20.48;;;;;;;12.36;100.00;102238.94;5034519;28;20029;-70
2021/10/27 11:43:53;;;;;;;24.63;18.90;;;;;;;12.94;100.00;102231.84;5034513;28;20056;-70
2021/10/27 11:46:42;;;;;;;27.63;19.85;;;;;;;11.55;100.00;102232.69;5034776;28;20103;-70
2021/10/27 11:49:39;;;;;;;25.50;18.50;;;;;;;12.13;100.00;102229.31;5034214;28;20033;-70
2021/10/27 11:52:39;;;;;;;23.92;17.90;;;;;;;12.11;100.00;102231.06;5034628;28;20025;-70
2021/10/27 11:55:29;;;;;;;24.13;18.33;;;;;;;12.43;100.00;102222.31;5034436;28;20399;-70
2021/10/27 11:58:14;;;;;;;25.15;18.15;;;;;;;13.10;100.00;102223.91;5034744;28;20051;-70
2021/10/27 12:01:02;;;;;;;22.30;17.05;;;;;;;12.99;100.00;102214.31;5019527;28;20029;-71
2021/10/27 12:03:48;;;;;;;22.98;17.25;;;;;;;13.42;100.00;102215.88;5034585;28;20033;-70
2021/10/27 12:27:27;;;;;;;22.80;15.02;;;;;;;13.75;100.00;102198.09;5091554;27;20385;-71
2021/10/27 12:30:16;;;;;;;20.33;15.45;;;;;;;13.66;100.00;102205.16;5092264;28;20133;-71
2021/10/27 12:33:04;;;;;;;22.15;14.90;;;;;;;12.75;100.00;102194.19;5091353;28;20035;-70
2021/10/27 12:39:19;;;;;;;24.42;16.95;;;;;;;13.05;100.00;102196.72;5092042;28;20415;-70
2021/10/27 12:42:09;;;;;;;23.45;16.65;;;;;;;13.13;100.00;102189.69;5091671;28;20369;-70
2021/10/27 12:44:54;;;;;;;25.90;17.45;;;;;;;12.99;100.00;102188.84;5091766;28;20456;-72
2021/10/27 14:07:24;;;;;;;29.10;20.65;;;;;;;13.76;100.00;102159.47;4977481;28;20054;-70
2021/10/27 15:51:55;;;;;;;47.08;31.38;;;;;;;13.03;100.00;102216.03;5221266;23;20142;-71
2021/10/27 15:54:44;;;;;;;52.67;36.97;;;;;;;12.93;100.00;102222.16;4941737;29;20042;-71
2021/10/27 15:57:30;;;;;;;51.30;35.30;;;;;;;12.91;100.00;102213.41;4937582;29;20032;-70
2021/10/27 16:00:16;;;;;;;54.53;38.50;;;;;;;12.93;100.00;102217.78;4937975;29;20031;-70
2021/10/27 16:03:02;;;;;;;61.28;42.40;;;;;;;12.78;100.00;102230.13;4937666;29;20094;-71
2021/10/27 16:05:50;;;;;;;67.60;48.35;;;;;;;12.81;100.00;102227.47;4923718;29;20096;-71
2021/10/27 16:08:37;;;;;;;70.68;48.38;;;;;;;12.74;100.00;102229.22;4937525;29;20035;-70
2021/10/27 17:17:42;;;;;;;90.32;59.47;;;;;;;11.93;100.00;102270.47;5701108;23;20055;-70
2021/10/27 17:20:28;;;;;;;92.03;62.10;;;;;;;12.06;100.00;102275.72;4945320;29;20381;-70
2021/10/27 17:23:27;;;;;;;99.28;65.85;;;;;;;12.19;100.00;102274.88;4958843;29;20019;-70
2021/10/27 17:26:13;;;;;;;95.70;66.88;;;;;;;12.19;100.00;102274.88;4958603;29;20549;-71
2021/10/27 17:29:02;;;;;;;102.90;70.65;;;;;;;11.92;100.00;102281.81;4958080;29;20377;-71
2021/10/27 17:31:47;;;;;;;103.85;71.43;;;;;;;11.89;100.00;102285.31;4957905;29;20034;-70
2021/10/27 17:34:34;;;;;;;104.75;69.13;;;;;;;12.00;100.00;102277.44;4958394;29;20035;-71
2021/10/27 17:37:21;;;;;;;96.70;66.65;;;;;;;11.80;100.00;102277.44;4958074;29;20081;-70
2021/10/27 18:04:35;;;;;;;72.22;49.03;;;;;;;11.96;100.00;102283.56;5893595;23;20063;-70
2021/10/27 18:07:25;;;;;;;66.70;46.42;;;;;;;12.00;100.00;102290.59;4926314;29;20032;-70
2021/10/27 18:10:14;;;;;;;68.30;45.17;;;;;;;11.97;100.00;102293.25;4939281;29;20028;-70
2021/10/27 18:13:01;;;;;;;60.53;42.90;;;;;;;12.09;100.00;102283.59;4938714;29;20042;-70
2021/10/27 18:15:49;;;;;;;67.38;45.28;;;;;;;12.17;100.00;102297.63;4938331;29;20027;-69
2021/10/27 18:21:47;;;;;;;63.13;41.30;;;;;;;12.27;100.00;102293.25;4938669;29;20401;-70
2021/10/27 19:19:37;;;;;;;69.68;45.10;;;;;;;11.63;100.00;102336.91;5266766;23;20461;-70
2021/10/27 19:22:25;;;;;;;65.90;43.40;;;;;;;11.92;100.00;102337.88;4956925;29;20357;-71
2021/10/27 20:55:23;;;;;;;60.90;40.88;;;;;;;11.14;100.00;102362.84;5773296;23;20433;-70
2021/10/27 21:15:28;;;;;;;64.97;42.83;;;;;;;10.68;100.00;102366.88;4958595;29;20031;-69
2021/10/27 21:53:03;;;;;;;59.63;39.85;;;;;;;9.92;100.00;102356.47;5533926;23;20059;-70
2021/10/27 21:55:51;;;;;;;63.88;40.53;;;;;;;9.86;100.00;102359.88;4958217;29;20357;-70
2021/10/27 21:58:37;;;;;;;62.00;39.10;;;;;;;9.64;100.00;102347.41;4943898;29;20038;-71
2021/10/27 22:01:23;;;;;;;61.80;39.78;;;;;;;9.78;100.00;102352.81;4958693;29;20031;-70
2021/10/27 22:04:09;;;;;;;60.00;39.78;;;;;;;9.75;100.00;102355.41;4957413;29;20113;-69
2021/10/27 22:06:55;;;;;;;58.60;39.58;;;;;;;9.68;100.00;102358.78;4957733;29;20109;-70
2021/10/27 22:09:41;;;;;;;52.95;37.95;;;;;;;9.65;100.00;102362.25;4957272;29;20031;-70
2021/10/27 22:12:26;;;;;;;58.15;37.95;;;;;;;9.80;100.00;102370.31;4958507;29;20110;-71
2021/10/27 22:56:55;;;;;;;40.85;27.45;;;;;;;9.03;100.00;102370.09;5979279;23;20026;-70
2021/10/27 23:00:07;;;;;;;38.75;26.92;;;;;;;9.00;100.00;102355.25;4937084;29;20454;-70
2021/10/27 23:06:32;;;;;;;40.83;27.50;;;;;;;8.57;100.00;102363.25;4938013;29;20042;-69
2021/10/27 23:15:42;;;;;;;39.85;25.35;;;;;;;8.38;100.00;102353.38;4937635;29;20036;-69
